sensor_id;sensor_type;location;lat;lon;timestamp;pressure;altitude;pressure_sealevel;temperature;humidity
51031;BME280;37058;41.442;23.240;2022-10-16T00:01:27;101079.78;;;11.88;93.69
51031;BME280;37058;41.442;23.240;2022-10-16T00:03:54;101090.41;;;11.73;92.40
51031;BME280;37058;41.442;23.240;2022-10-16T00:06:23;101087.06;;;11.71;91.90
51031;BME280;37058;41.442;23.240;2022-10-16T00:08:50;101088.09;;;11.53;91.53
51031;BME280;37058;41.442;23.240;2022-10-16T00:11:28;101097.72;;;11.56;92.25
51031;BME280;37058;41.442;23.240;2022-10-16T00:13:59;101098.00;;;11.42;93.55
51031;BME280;37058;41.442;23.240;2022-10-16T00:16:26;101109.75;;;11.43;94.05
51031;BME280;37058;41.442;23.240;2022-10-16T00:18:52;101099.78;;;11.37;94.86
51031;BME280;37058;41.442;23.240;2022-10-16T00:21:23;101108.94;;;11.31;94.77
51031;BME280;37058;41.442;23.240;2022-10-16T00:23:56;101093.75;;;11.23;95.69
51031;BME280;37058;41.442;23.240;2022-10-16T00:26:22;101103.38;;;11.25;95.78
51031;BME280;37058;41.442;23.240;2022-10-16T00:28:50;101098.13;;;11.24;95.86
51031;BME280;37058;41.442;23.240;2022-10-16T00:31:19;101102.78;;;11.23;95.88
51031;BME280;37058;41.442;23.240;2022-10-16T00:33:45;101100.53;;;11.20;96.21
51031;BME280;37058;41.442;23.240;2022-10-16T00:36:14;101093.97;;;11.21;96.20
51031;BME280;37058;41.442;23.240;2022-10-16T00:38:41;101105.16;;;11.20;96.36
51031;BME280;37058;41.442;23.240;2022-10-16T00:41:14;101099.22;;;11.23;96.09
51031;BME280;37058;41.442;23.240;2022-10-16T00:43:49;101101.94;;;11.23;96.53
51031;BME280;37058;41.442;23.240;2022-10-16T00:46:27;101096.97;;;11.20;96.37
51031;BME280;37058;41.442;23.240;2022-10-16T00:49:10;101102.19;;;11.21;96.18
51031;BME280;37058;41.442;23.240;2022-10-16T00:51:54;101092.09;;;11.22;95.23
51031;BME280;37058;41.442;23.240;2022-10-16T00:54:24;101098.03;;;11.19;95.05
51031;BME280;37058;41.442;23.240;2022-10-16T00:56:51;101100.53;;;11.20;94.68
51031;BME280;37058;41.442;23.240;2022-10-16T00:59:30;101110.38;;;11.21;94.38
51031;BME280;37058;41.442;23.240;2022-10-16T01:01:57;101117.75;;;11.21;94.37
51031;BME280;37058;41.442;23.240;2022-10-16T01:04:25;101115.28;;;11.19;94.35
51031;BME280;37058;41.442;23.240;2022-10-16T01:09:57;101127.88;;;11.20;94.15
51031;BME280;37058;41.442;23.240;2022-10-16T01:15:25;101116.81;;;11.15;92.86
51031;BME280;37058;41.442;23.240;2022-10-16T01:21:05;101122.66;;;10.95;90.39
51031;BME280;37058;41.442;23.240;2022-10-16T01:24:23;101124.53;;;10.83;87.52
51031;BME280;37058;41.442;23.240;2022-10-16T01:30:10;101123.34;;;10.67;89.29
51031;BME280;37058;41.442;23.240;2022-10-16T01:33:08;101139.16;;;10.53;88.58
51031;BME280;37058;41.442;23.240;2022-10-16T01:35:43;101126.63;;;10.46;88.88
51031;BME280;37058;41.442;23.240;2022-10-16T01:38:31;101132.69;;;10.36;90.02
51031;BME280;37058;41.442;23.240;2022-10-16T01:41:11;101145.13;;;10.32;90.33
51031;BME280;37058;41.442;23.240;2022-10-16T01:43:46;101135.34;;;10.24;90.05
51031;BME280;37058;41.442;23.240;2022-10-16T01:46:17;101141.38;;;10.14;89.25
51031;BME280;37058;41.442;23.240;2022-10-16T01:48:45;101139.47;;;10.15;90.08
51031;BME280;37058;41.442;23.240;2022-10-16T01:51:13;101140.06;;;10.17;89.92
51031;BME280;37058;41.442;23.240;2022-10-16T01:53:43;101134.47;;;10.12;89.55
51031;BME280;37058;41.442;23.240;2022-10-16T01:56:12;101145.66;;;10.10;89.64
51031;BME280;37058;41.442;23.240;2022-10-16T01:59:15;101140.63;;;10.07;90.80
51031;BME280;37058;41.442;23.240;2022-10-16T02:01:47;101157.00;;;10.07;92.44
51031;BME280;37058;41.442;23.240;2022-10-16T02:04:23;101141.00;;;10.11;93.65
51031;BME280;37058;41.442;23.240;2022-10-16T02:06:50;101156.09;;;10.13;95.28
51031;BME280;37058;41.442;23.240;2022-10-16T02:09:16;101153.72;;;10.17;96.03
51031;BME280;37058;41.442;23.240;2022-10-16T02:11:43;101155.63;;;10.16;96.41
51031;BME280;37058;41.442;23.240;2022-10-16T02:14:09;101158.56;;;10.15;96.43
51031;BME280;37058;41.442;23.240;2022-10-16T02:16:47;101154.88;;;10.09;94.11
51031;BME280;37058;41.442;23.240;2022-10-16T02:19:15;101168.56;;;9.91;92.93
51031;BME280;37058;41.442;23.240;2022-10-16T02:21:55;101161.88;;;9.87;93.14
51031;BME280;37058;41.442;23.240;2022-10-16T02:24:43;101152.66;;;9.88;93.35
51031;BME280;37058;41.442;23.240;2022-10-16T02:27:33;101160.09;;;9.81;93.69
51031;BME280;37058;41.442;23.240;2022-10-16T02:30:29;101159.94;;;9.75;93.40
51031;BME280;37058;41.442;23.240;2022-10-16T02:32:58;101142.91;;;9.62;94.43
51031;BME280;37058;41.442;23.240;2022-10-16T02:35:27;101155.72;;;9.61;94.70
51031;BME280;37058;41.442;23.240;2022-10-16T02:37:54;101144.66;;;9.56;94.95
51031;BME280;37058;41.442;23.240;2022-10-16T02:40:21;101149.66;;;9.59;95.51
51031;BME280;37058;41.442;23.240;2022-10-16T02:42:52;101155.72;;;9.61;95.34
51031;BME280;37058;41.442;23.240;2022-10-16T02:45:18;101160.81;;;9.58;95.64
51031;BME280;37058;41.442;23.240;2022-10-16T02:47:44;101166.25;;;9.58;96.40
51031;BME280;37058;41.442;23.240;2022-10-16T02:50:10;101171.72;;;9.58;96.63
51031;BME280;37058;41.442;23.240;2022-10-16T02:52:36;101180.09;;;9.56;96.87
51031;BME280;37058;41.442;23.240;2022-10-16T02:55:02;101178.88;;;9.52;95.60
51031;BME280;37058;41.442;23.240;2022-10-16T02:57:28;101177.22;;;9.51;95.00
51031;BME280;37058;41.442;23.240;2022-10-16T02:59:54;101181.19;;;9.55;93.53
51031;BME280;37058;41.442;23.240;2022-10-16T03:02:20;101192.16;;;9.48;93.91
51031;BME280;37058;41.442;23.240;2022-10-16T03:04:46;101193.50;;;9.39;94.28
51031;BME280;37058;41.442;23.240;2022-10-16T03:07:12;101190.63;;;9.34;94.53
51031;BME280;37058;41.442;23.240;2022-10-16T03:09:38;101191.06;;;9.31;94.53
51031;BME280;37058;41.442;23.240;2022-10-16T03:12:04;101197.19;;;9.26;93.72
51031;BME280;37058;41.442;23.240;2022-10-16T03:14:30;101200.81;;;9.20;93.99
51031;BME280;37058;41.442;23.240;2022-10-16T03:16:56;101212.03;;;9.12;95.66
51031;BME280;37058;41.442;23.240;2022-10-16T03:19:21;101211.03;;;9.06;97.23
51031;BME280;37058;41.442;23.240;2022-10-16T03:21:47;101207.91;;;9.03;98.83
51031;BME280;37058;41.442;23.240;2022-10-16T03:24:13;101219.25;;;9.00;99.02
51031;BME280;37058;41.442;23.240;2022-10-16T03:26:39;101224.09;;;8.98;98.74
51031;BME280;37058;41.442;23.240;2022-10-16T03:29:05;101225.53;;;9.00;98.20
51031;BME280;37058;41.442;23.240;2022-10-16T03:31:32;101222.44;;;8.97;98.35
51031;BME280;37058;41.442;23.240;2022-10-16T03:33:58;101223.25;;;8.97;98.33
51031;BME280;37058;41.442;23.240;2022-10-16T03:36:24;101222.34;;;9.03;98.30
51031;BME280;37058;41.442;23.240;2022-10-16T03:38:49;101224.03;;;9.04;97.16
51031;BME280;37058;41.442;23.240;2022-10-16T03:41:15;101231.56;;;9.09;96.36
51031;BME280;37058;41.442;23.240;2022-10-16T03:43:41;101231.97;;;9.06;96.29
51031;BME280;37058;41.442;23.240;2022-10-16T03:46:07;101231.34;;;9.04;95.58
51031;BME280;37058;41.442;23.240;2022-10-16T03:48:33;101237.72;;;8.98;92.61
51031;BME280;37058;41.442;23.240;2022-10-16T03:50:59;101224.91;;;8.98;91.69
51031;BME280;37058;41.442;23.240;2022-10-16T03:53:25;101225.75;;;8.99;91.35
51031;BME280;37058;41.442;23.240;2022-10-16T03:55:51;101229.09;;;9.01;91.45
51031;BME280;37058;41.442;23.240;2022-10-16T03:58:17;101232.91;;;8.93;89.28
51031;BME280;37058;41.442;23.240;2022-10-16T04:00:44;101235.53;;;8.81;87.18
51031;BME280;37058;41.442;23.240;2022-10-16T04:03:10;101233.25;;;8.78;87.11
51031;BME280;37058;41.442;23.240;2022-10-16T04:05:36;101228.84;;;8.77;86.93
51031;BME280;37058;41.442;23.240;2022-10-16T04:08:03;101224.84;;;8.80;87.57
51031;BME280;37058;41.442;23.240;2022-10-16T04:10:29;101224.88;;;8.73;87.06
51031;BME280;37058;41.442;23.240;2022-10-16T04:12:55;101216.78;;;8.66;86.12
51031;BME280;37058;41.442;23.240;2022-10-16T04:15:23;101216.91;;;8.46;85.58
51031;BME280;37058;41.442;23.240;2022-10-16T04:17:49;101221.56;;;8.33;85.60
51031;BME280;37058;41.442;23.240;2022-10-16T04:20:15;101218.72;;;8.14;85.10
51031;BME280;37058;41.442;23.240;2022-10-16T04:22:41;101212.66;;;8.12;86.30
51031;BME280;37058;41.442;23.240;2022-10-16T04:25:07;101213.94;;;8.10;86.69
51031;BME280;37058;41.442;23.240;2022-10-16T04:27:33;101217.34;;;7.98;87.31
51031;BME280;37058;41.442;23.240;2022-10-16T04:30:00;101218.00;;;7.87;87.74
51031;BME280;37058;41.442;23.240;2022-10-16T04:32:27;101215.53;;;7.86;88.08
51031;BME280;37058;41.442;23.240;2022-10-16T04:34:53;101232.03;;;7.84;89.27
51031;BME280;37058;41.442;23.240;2022-10-16T04:37:23;101230.56;;;7.88;89.83
51031;BME280;37058;41.442;23.240;2022-10-16T04:39:49;101229.13;;;7.79;91.16
51031;BME280;37058;41.442;23.240;2022-10-16T04:42:15;101228.09;;;7.80;91.85
51031;BME280;37058;41.442;23.240;2022-10-16T04:44:41;101237.28;;;7.79;91.74
51031;BME280;37058;41.442;23.240;2022-10-16T04:47:07;101237.28;;;7.79;91.87
51031;BME280;37058;41.442;23.240;2022-10-16T04:49:33;101238.13;;;7.79;92.03
51031;BME280;37058;41.442;23.240;2022-10-16T04:51:59;101243.16;;;7.82;92.59
51031;BME280;37058;41.442;23.240;2022-10-16T04:54:25;101251.28;;;7.89;92.81
51031;BME280;37058;41.442;23.240;2022-10-16T04:56:51;101249.38;;;7.96;92.36
51031;BME280;37058;41.442;23.240;2022-10-16T04:59:19;101247.66;;;8.02;91.43
51031;BME280;37058;41.442;23.240;2022-10-16T05:01:45;101245.97;;;8.08;89.77
51031;BME280;37058;41.442;23.240;2022-10-16T05:04:11;101247.19;;;8.18;89.33
51031;BME280;37058;41.442;23.240;2022-10-16T05:06:38;101252.19;;;8.28;88.93
51031;BME280;37058;41.442;23.240;2022-10-16T05:09:05;101249.81;;;8.38;88.43
51031;BME280;37058;41.442;23.240;2022-10-16T05:11:31;101246.91;;;8.40;87.79
51031;BME280;37058;41.442;23.240;2022-10-16T05:13:57;101248.34;;;8.42;86.10
51031;BME280;37058;41.442;23.240;2022-10-16T05:16:23;101255.47;;;8.43;86.19
51031;BME280;37058;41.442;23.240;2022-10-16T05:18:50;101256.94;;;8.46;86.71
51031;BME280;37058;41.442;23.240;2022-10-16T05:21:16;101265.84;;;8.60;87.80
51031;BME280;37058;41.442;23.240;2022-10-16T05:23:42;101274.59;;;8.68;87.83
51031;BME280;37058;41.442;23.240;2022-10-16T05:26:08;101272.00;;;8.80;87.20
51031;BME280;37058;41.442;23.240;2022-10-16T05:28:34;101274.06;;;8.85;86.04
51031;BME280;37058;41.442;23.240;2022-10-16T05:31:08;101281.97;;;8.93;85.42
51031;BME280;37058;41.442;23.240;2022-10-16T05:33:35;101282.72;;;9.07;84.85
51031;BME280;37058;41.442;23.240;2022-10-16T05:36:08;101283.63;;;9.44;83.97
51031;BME280;37058;41.442;23.240;2022-10-16T05:38:36;101291.50;;;10.14;80.73
51031;BME280;37058;41.442;23.240;2022-10-16T05:41:02;101293.56;;;10.19;80.46
51031;BME280;37058;41.442;23.240;2022-10-16T05:43:30;101293.75;;;10.17;79.87
51031;BME280;37058;41.442;23.240;2022-10-16T05:46:03;101293.56;;;10.19;79.66
51031;BME280;37058;41.442;23.240;2022-10-16T05:48:30;101295.00;;;10.40;78.93
51031;BME280;37058;41.442;23.240;2022-10-16T05:51:09;101296.63;;;10.59;78.17
51031;BME280;37058;41.442;23.240;2022-10-16T05:53:37;101300.31;;;10.95;77.70
51031;BME280;37058;41.442;23.240;2022-10-16T05:56:05;101301.53;;;10.99;76.44
51031;BME280;37058;41.442;23.240;2022-10-16T05:58:34;101305.13;;;11.23;75.77
51031;BME280;37058;41.442;23.240;2022-10-16T06:01:12;101315.25;;;11.35;75.06
51031;BME280;37058;41.442;23.240;2022-10-16T06:03:39;101317.19;;;11.58;74.74
51031;BME280;37058;41.442;23.240;2022-10-16T06:06:15;101315.25;;;11.82;74.00
51031;BME280;37058;41.442;23.240;2022-10-16T06:08:42;101323.72;;;12.04;73.21
51031;BME280;37058;41.442;23.240;2022-10-16T06:11:12;101321.69;;;12.11;73.14
51031;BME280;37058;41.442;23.240;2022-10-16T06:13:39;101333.09;;;12.20;73.11
51031;BME280;37058;41.442;23.240;2022-10-16T06:16:08;101331.66;;;12.41;73.47
51031;BME280;37058;41.442;23.240;2022-10-16T06:18:34;101339.41;;;12.61;72.62
51031;BME280;37058;41.442;23.240;2022-10-16T06:21:06;101342.31;;;12.83;72.94
51031;BME280;37058;41.442;23.240;2022-10-16T06:23:32;101338.13;;;13.09;72.27
51031;BME280;37058;41.442;23.240;2022-10-16T06:26:09;101347.03;;;13.44;71.98
51031;BME280;37058;41.442;23.240;2022-10-16T06:28:35;101345.91;;;13.96;70.28
51031;BME280;37058;41.442;23.240;2022-10-16T06:31:03;101345.38;;;14.38;68.91
51031;BME280;37058;41.442;23.240;2022-10-16T06:33:29;101345.41;;;14.87;67.99
51031;BME280;37058;41.442;23.240;2022-10-16T06:36:10;101353.09;;;15.39;65.79
51031;BME280;37058;41.442;23.240;2022-10-16T06:38:37;101354.84;;;15.88;64.54
51031;BME280;37058;41.442;23.240;2022-10-16T06:41:04;101359.78;;;16.29;63.07
51031;BME280;37058;41.442;23.240;2022-10-16T06:43:32;101360.22;;;16.73;61.92
51031;BME280;37058;41.442;23.240;2022-10-16T06:45:59;101367.81;;;17.24;60.37
51031;BME280;37058;41.442;23.240;2022-10-16T06:48:26;101366.72;;;17.66;58.93
51031;BME280;37058;41.442;23.240;2022-10-16T06:51:14;101366.97;;;18.15;57.33
51031;BME280;37058;41.442;23.240;2022-10-16T06:53:46;101367.59;;;18.67;56.07
51031;BME280;37058;41.442;23.240;2022-10-16T06:56:23;101369.03;;;19.14;54.38
51031;BME280;37058;41.442;23.240;2022-10-16T06:58:51;101373.69;;;19.58;53.54
51031;BME280;37058;41.442;23.240;2022-10-16T07:01:19;101374.16;;;20.48;51.67
51031;BME280;37058;41.442;23.240;2022-10-16T07:03:46;101371.72;;;22.25;47.65
51031;BME280;37058;41.442;23.240;2022-10-16T07:06:19;101371.34;;;25.06;40.47
51031;BME280;37058;41.442;23.240;2022-10-16T07:08:47;101374.47;;;27.52;36.17
51031;BME280;37058;41.442;23.240;2022-10-16T07:11:16;101372.41;;;29.90;31.49
51031;BME280;37058;41.442;23.240;2022-10-16T07:13:43;101363.44;;;31.57;28.89
51031;BME280;37058;41.442;23.240;2022-10-16T07:16:16;101369.19;;;33.06;26.57
51031;BME280;37058;41.442;23.240;2022-10-16T07:18:43;101373.44;;;33.91;25.19
51031;BME280;37058;41.442;23.240;2022-10-16T07:21:14;101370.88;;;30.56;28.90
51031;BME280;37058;41.442;23.240;2022-10-16T07:23:41;101368.06;;;27.64;32.94
51031;BME280;37058;41.442;23.240;2022-10-16T07:26:09;101369.84;;;24.91;36.84
51031;BME280;37058;41.442;23.240;2022-10-16T07:28:37;101365.03;;;23.63;40.40
51031;BME280;37058;41.442;23.240;2022-10-16T07:31:09;101369.03;;;22.48;43.33
51031;BME280;37058;41.442;23.240;2022-10-16T07:33:37;101369.13;;;21.69;44.86
51031;BME280;37058;41.442;23.240;2022-10-16T07:36:04;101377.84;;;20.86;46.90
51031;BME280;37058;41.442;23.240;2022-10-16T07:38:30;101377.13;;;20.08;48.26
51031;BME280;37058;41.442;23.240;2022-10-16T07:41:06;101368.72;;;19.55;50.10
51031;BME280;37058;41.442;23.240;2022-10-16T07:43:33;101368.69;;;19.21;51.34
51031;BME280;37058;41.442;23.240;2022-10-16T07:46:00;101365.56;;;18.88;53.47
51031;BME280;37058;41.442;23.240;2022-10-16T07:48:34;101363.41;;;18.80;53.83
51031;BME280;37058;41.442;23.240;2022-10-16T07:51:03;101379.88;;;18.35;53.74
51031;BME280;37058;41.442;23.240;2022-10-16T07:53:30;101374.41;;;18.15;55.25
51031;BME280;37058;41.442;23.240;2022-10-16T07:56:02;101371.44;;;17.86;55.65
51031;BME280;37058;41.442;23.240;2022-10-16T07:58:29;101379.19;;;17.84;55.80
51031;BME280;37058;41.442;23.240;2022-10-16T08:00:56;101369.75;;;17.74;57.18
51031;BME280;37058;41.442;23.240;2022-10-16T08:03:23;101368.94;;;17.69;56.73
51031;BME280;37058;41.442;23.240;2022-10-16T08:05:50;101367.28;;;17.63;57.13
51031;BME280;37058;41.442;23.240;2022-10-16T08:08:17;101372.81;;;17.73;57.97
51031;BME280;37058;41.442;23.240;2022-10-16T08:10:44;101358.47;;;17.81;57.50
51031;BME280;37058;41.442;23.240;2022-10-16T08:13:10;101354.56;;;17.82;57.09
51031;BME280;37058;41.442;23.240;2022-10-16T08:15:36;101362.84;;;17.77;57.26
51031;BME280;37058;41.442;23.240;2022-10-16T08:18:05;101355.41;;;17.72;57.49
51031;BME280;37058;41.442;23.240;2022-10-16T08:20:32;101359.00;;;17.78;57.33
51031;BME280;37058;41.442;23.240;2022-10-16T08:23:00;101358.44;;;17.71;57.29
51031;BME280;37058;41.442;23.240;2022-10-16T08:25:26;101354.03;;;17.75;57.42
51031;BME280;37058;41.442;23.240;2022-10-16T08:27:52;101354.84;;;17.75;58.26
51031;BME280;37058;41.442;23.240;2022-10-16T08:30:20;101347.41;;;17.81;57.80
51031;BME280;37058;41.442;23.240;2022-10-16T08:32:46;101352.34;;;17.94;57.72
51031;BME280;37058;41.442;23.240;2022-10-16T08:35:13;101354.03;;;17.95;57.18
51031;BME280;37058;41.442;23.240;2022-10-16T08:37:39;101354.53;;;18.03;56.53
51031;BME280;37058;41.442;23.240;2022-10-16T08:40:18;101355.94;;;18.00;55.97
51031;BME280;37058;41.442;23.240;2022-10-16T08:48:52;101352.63;;;18.03;54.88
51031;BME280;37058;41.442;23.240;2022-10-16T08:51:31;101350.94;;;18.07;54.49
51031;BME280;37058;41.442;23.240;2022-10-16T08:54:09;101349.53;;;18.15;54.09
51031;BME280;37058;41.442;23.240;2022-10-16T08:56:39;101348.44;;;18.16;54.66
51031;BME280;37058;41.442;23.240;2022-10-16T08:59:10;101350.66;;;18.14;54.08
51031;BME280;37058;41.442;23.240;2022-10-16T09:01:41;101341.25;;;18.15;53.86
51031;BME280;37058;41.442;23.240;2022-10-16T09:13:27;101328.25;;;18.10;54.08
51031;BME280;37058;41.442;23.240;2022-10-16T09:19:00;101329.66;;;18.13;54.67
51031;BME280;37058;41.442;23.240;2022-10-16T09:21:31;101324.13;;;18.03;54.27
51031;BME280;37058;41.442;23.240;2022-10-16T09:24:18;101317.25;;;17.95;54.55
51031;BME280;37058;41.442;23.240;2022-10-16T09:26:46;101318.09;;;17.90;55.20
51031;BME280;37058;41.442;23.240;2022-10-16T09:29:18;101317.00;;;17.91;55.62
51031;BME280;37058;41.442;23.240;2022-10-16T09:31:47;101308.94;;;17.95;54.74
51031;BME280;37058;41.442;23.240;2022-10-16T09:34:36;101303.16;;;17.96;55.29
51031;BME280;37058;41.442;23.240;2022-10-16T09:37:12;101302.03;;;17.97;54.43
51031;BME280;37058;41.442;23.240;2022-10-16T09:39:52;101303.13;;;18.02;54.00
51031;BME280;37058;41.442;23.240;2022-10-16T09:44:51;101294.25;;;18.10;53.36
51031;BME280;37058;41.442;23.240;2022-10-16T09:47:29;101292.00;;;18.22;53.88
51031;BME280;37058;41.442;23.240;2022-10-16T09:50:13;101284.50;;;18.28;53.28
51031;BME280;37058;41.442;23.240;2022-10-16T09:52:44;101288.16;;;18.23;52.74
51031;BME280;37058;41.442;23.240;2022-10-16T09:55:17;101272.38;;;18.24;52.99
51031;BME280;37058;41.442;23.240;2022-10-16T09:57:54;101276.53;;;18.26;53.94
51031;BME280;37058;41.442;23.240;2022-10-16T10:00:22;101272.63;;;18.27;53.05
51031;BME280;37058;41.442;23.240;2022-10-16T10:02:49;101281.19;;;18.31;53.30
51031;BME280;37058;41.442;23.240;2022-10-16T10:05:27;101267.06;;;18.37;53.35
51031;BME280;37058;41.442;23.240;2022-10-16T10:07:59;101272.84;;;18.46;52.68
51031;BME280;37058;41.442;23.240;2022-10-16T10:10:37;101274.44;;;18.52;52.61
51031;BME280;37058;41.442;23.240;2022-10-16T10:13:21;101265.03;;;18.58;52.49
51031;BME280;37058;41.442;23.240;2022-10-16T10:15:47;101267.47;;;18.60;51.90
51031;BME280;37058;41.442;23.240;2022-10-16T10:18:22;101265.47;;;18.71;51.12
51031;BME280;37058;41.442;23.240;2022-10-16T10:21:00;101260.50;;;18.68;51.55
51031;BME280;37058;41.442;23.240;2022-10-16T10:23:28;101253.31;;;18.72;51.21
51031;BME280;37058;41.442;23.240;2022-10-16T10:26:22;101253.00;;;18.73;51.41
51031;BME280;37058;41.442;23.240;2022-10-16T10:35:22;101236.91;;;18.86;50.97
51031;BME280;37058;41.442;23.240;2022-10-16T10:38:11;101245.97;;;18.91;51.00
51031;BME280;37058;41.442;23.240;2022-10-16T10:49:41;101218.34;;;19.20;51.27
51031;BME280;37058;41.442;23.240;2022-10-16T11:01:18;101208.66;;;19.47;50.75
51031;BME280;37058;41.442;23.240;2022-10-16T11:04:31;101203.53;;;19.59;50.77
51031;BME280;37058;41.442;23.240;2022-10-16T11:07:04;101206.56;;;19.63;50.46
51031;BME280;37058;41.442;23.240;2022-10-16T11:09:36;101200.47;;;19.61;50.19
51031;BME280;37058;41.442;23.240;2022-10-16T11:12:25;101192.38;;;19.64;49.94
51031;BME280;37058;41.442;23.240;2022-10-16T11:15:13;101192.31;;;19.75;50.17
51031;BME280;37058;41.442;23.240;2022-10-16T11:20:30;101191.81;;;19.91;49.71
51031;BME280;37058;41.442;23.240;2022-10-16T11:26:11;101190.06;;;20.01;48.12
51031;BME280;37058;41.442;23.240;2022-10-16T11:28:57;101185.25;;;20.06;48.77
51031;BME280;37058;41.442;23.240;2022-10-16T11:37:12;101174.25;;;20.20;49.52
51031;BME280;37058;41.442;23.240;2022-10-16T11:39:40;101181.06;;;20.28;49.81
51031;BME280;37058;41.442;23.240;2022-10-16T11:42:21;101176.22;;;20.39;48.11
51031;BME280;37058;41.442;23.240;2022-10-16T11:50:20;101162.25;;;20.44;48.46
51031;BME280;37058;41.442;23.240;2022-10-16T11:55:44;101172.97;;;20.50;48.89
51031;BME280;37058;41.442;23.240;2022-10-16T11:58:58;101162.25;;;20.63;47.57
51031;BME280;37058;41.442;23.240;2022-10-16T12:01:38;101152.31;;;20.62;47.94
51031;BME280;37058;41.442;23.240;2022-10-16T12:04:39;101157.03;;;20.61;46.73
51031;BME280;37058;41.442;23.240;2022-10-16T12:07:24;101154.53;;;20.60;47.29
51031;BME280;37058;41.442;23.240;2022-10-16T12:09:56;101153.94;;;20.63;47.20
51031;BME280;37058;41.442;23.240;2022-10-16T12:15:28;101154.22;;;20.80;47.10
51031;BME280;37058;41.442;23.240;2022-10-16T12:17:55;101139.28;;;20.76;47.17
51031;BME280;37058;41.442;23.240;2022-10-16T12:20:31;101141.47;;;20.79;47.02
51031;BME280;37058;41.442;23.240;2022-10-16T12:23:04;101143.72;;;20.77;47.63
51031;BME280;37058;41.442;23.240;2022-10-16T12:25:37;101141.75;;;20.77;45.97
51031;BME280;37058;41.442;23.240;2022-10-16T12:30:42;101144.75;;;20.81;47.41
51031;BME280;37058;41.442;23.240;2022-10-16T12:33:31;101138.59;;;20.84;46.31
51031;BME280;37058;41.442;23.240;2022-10-16T12:36:02;101139.09;;;20.86;46.48
51031;BME280;37058;41.442;23.240;2022-10-16T12:38:37;101141.59;;;20.88;45.67
51031;BME280;37058;41.442;23.240;2022-10-16T12:41:08;101143.53;;;20.87;45.42
51031;BME280;37058;41.442;23.240;2022-10-16T12:43:40;101131.81;;;20.90;45.49
51031;BME280;37058;41.442;23.240;2022-10-16T12:48:38;101135.66;;;21.08;44.89
51031;BME280;37058;41.442;23.240;2022-10-16T12:54:12;101133.78;;;21.04;44.70
51031;BME280;37058;41.442;23.240;2022-10-16T13:00:20;101135.03;;;20.97;44.50
51031;BME280;37058;41.442;23.240;2022-10-16T13:03:28;101139.97;;;21.00;44.23
51031;BME280;37058;41.442;23.240;2022-10-16T13:09:43;101137.91;;;20.92;44.55
51031;BME280;37058;41.442;23.240;2022-10-16T13:12:31;101140.59;;;20.97;43.76
51031;BME280;37058;41.442;23.240;2022-10-16T13:15:25;101140.28;;;20.99;45.08
51031;BME280;37058;41.442;23.240;2022-10-16T13:21:33;101144.41;;;21.02;44.97
51031;BME280;37058;41.442;23.240;2022-10-16T13:27:23;101145.41;;;21.06;44.49
51031;BME280;37058;41.442;23.240;2022-10-16T13:30:00;101145.75;;;21.04;44.50
51031;BME280;37058;41.442;23.240;2022-10-16T13:32:27;101137.41;;;21.04;44.69
51031;BME280;37058;41.442;23.240;2022-10-16T13:34:54;101140.91;;;21.10;44.48
51031;BME280;37058;41.442;23.240;2022-10-16T13:37:23;101144.22;;;21.26;43.20
51031;BME280;37058;41.442;23.240;2022-10-16T13:39:50;101141.03;;;21.18;43.25
51031;BME280;37058;41.442;23.240;2022-10-16T13:42:27;101141.03;;;21.18;43.01
51031;BME280;37058;41.442;23.240;2022-10-16T13:44:55;101144.31;;;21.20;43.20
51031;BME280;37058;41.442;23.240;2022-10-16T13:47:27;101144.03;;;21.22;43.32
51031;BME280;37058;41.442;23.240;2022-10-16T13:50:17;101135.47;;;21.18;43.89
51031;BME280;37058;41.442;23.240;2022-10-16T13:52:43;101141.34;;;21.17;43.34
51031;BME280;37058;41.442;23.240;2022-10-16T13:55:16;101144.63;;;21.19;42.75
51031;BME280;37058;41.442;23.240;2022-10-16T13:57:42;101136.28;;;21.19;42.83
51031;BME280;37058;41.442;23.240;2022-10-16T14:00:24;101134.03;;;21.21;43.67
51031;BME280;37058;41.442;23.240;2022-10-16T14:03:01;101140.09;;;21.23;43.03
51031;BME280;37058;41.442;23.240;2022-10-16T14:05:28;101139.28;;;21.23;43.24
51031;BME280;37058;41.442;23.240;2022-10-16T14:07:54;101141.75;;;21.24;42.99
51031;BME280;37058;41.442;23.240;2022-10-16T14:10:30;101148.44;;;21.23;43.94
51031;BME280;37058;41.442;23.240;2022-10-16T14:13:03;101148.72;;;21.21;43.90
51031;BME280;37058;41.442;23.240;2022-10-16T14:15:35;101145.97;;;21.21;44.03
51031;BME280;37058;41.442;23.240;2022-10-16T14:18:03;101147.91;;;21.21;44.76
51031;BME280;37058;41.442;23.240;2022-10-16T14:20:33;101152.66;;;21.20;45.07
51031;BME280;37058;41.442;23.240;2022-10-16T14:23:04;101151.31;;;21.18;45.45
51031;BME280;37058;41.442;23.240;2022-10-16T14:25:32;101154.09;;;21.18;45.45
51031;BME280;37058;41.442;23.240;2022-10-16T14:28:17;101152.44;;;21.17;45.49
51031;BME280;37058;41.442;23.240;2022-10-16T14:30:56;101156.34;;;21.16;45.52
51031;BME280;37058;41.442;23.240;2022-10-16T14:36:15;101154.19;;;21.13;46.41
51031;BME280;37058;41.442;23.240;2022-10-16T14:39:01;101163.13;;;21.10;46.15
51031;BME280;37058;41.442;23.240;2022-10-16T14:41:29;101158.19;;;21.07;45.57
51031;BME280;37058;41.442;23.240;2022-10-16T14:44:05;101166.00;;;21.05;46.05
51031;BME280;37058;41.442;23.240;2022-10-16T14:46:35;101171.03;;;21.03;45.50
51031;BME280;37058;41.442;23.240;2022-10-16T14:49:17;101164.44;;;20.98;45.14
51031;BME280;37058;41.442;23.240;2022-10-16T14:51:45;101163.09;;;20.96;45.74